Terminal Aerodrome Forecast
Issued by NWS

Home | Current Version | Previous Version | Graphics & Text | Print | Product List | Glossary On
Versions: 1 2 3 4 5 6 7 8 9 10 11 12 13 14 15 16 17 18 19 20 21
000
FTUS43 KABR 251010 AAA
TAFMBG
TAF AMD
KMBG 251010Z 2510/2606 29011KT P6SM -SHRA OVC070
      TEMPO 2510/2511 5SM RA
     FM251100 08010KT P6SM SCT150
     FM251500 12008KT P6SM SCT120=

USA.gov is the U.S. government's official web portal to all federal, state and local government web resources and services.